Aviation Digital Data Service (ADDS)

Output produced by METARs form (1450 UTC 26 April 2018)
found at http://aviationweather.gov/adds/metars/
 
KLAS 261120Z 2612/2718 VRB05KT P6SM FEW250 
     FM261700 05005KT P6SM FEW130 SCT250 
     FM270300 21010KT P6SM SCT250